<?xml version="1.0" encoding="UTF-8" standalone="no" ?>
<gpx xmlns="http://www.topografix.com/GPX/1/1" xmlns:xsi="http://www.w3.org/2001/XMLSchema-instance" xsi:schemaLocation="http://www.topografix.com/GPX/1/1 http://www.topografix.com/GPX/1/1/gpx.xsd" version="1.1" creator="VisuGPX - https://www.visugpx.com">
  <metadata>
    <name>Sortie Ste Victoire</name>
    <desc><![CDATA[Sortie sans difficulté]]></desc>
  </metadata>
  <trk>
    <name><![CDATA[Ste Victoire]]></name>
    <trkseg>
      <trkpt lat="43.52397" lon="5.56449">
        <ele>308.20001220703</ele>
        <time>2013-01-27T08:04:39.000Z</time>
      </trkpt>
      <trkpt lat="43.5239" lon="5.56518">
        <ele>311</ele>
        <time>2013-01-27T08:08:00.000Z</time>
      </trkpt>
      <trkpt lat="43.52384" lon="5.56584">
        <ele>312.60000610352</ele>
        <time>2013-01-27T08:11:28.000Z</time>
      </trkpt>
      <trkpt lat="43.52396" lon="5.56669">
        <ele>317.79998779297</ele>
        <time>2013-01-27T08:12:22.000Z</time>
      </trkpt>
      <trkpt lat="43.52442" lon="5.56684">
        <ele>326.60000610352</ele>
        <time>2013-01-27T08:13:04.000Z</time>
      </trkpt>
      <trkpt lat="43.52487" lon="5.5671">
        <ele>337</ele>
        <time>2013-01-27T08:13:45.000Z</time>
      </trkpt>
      <trkpt lat="43.52532" lon="5.56697">
        <ele>346.79998779297</ele>
        <time>2013-01-27T08:14:23.000Z</time>
      </trkpt>
      <trkpt lat="43.52579" lon="5.56688">
        <ele>357</ele>
        <time>2013-01-27T08:15:00.000Z</time>
      </trkpt>
      <trkpt lat="43.52596" lon="5.56747">
        <ele>364.20001220703</ele>
        <time>2013-01-27T08:15:57.000Z</time>
      </trkpt>
      <trkpt lat="43.52626" lon="5.56763">
        <ele>374</ele>
        <time>2013-01-27T08:16:46.000Z</time>
      </trkpt>
      <trkpt lat="43.52653" lon="5.56806">
        <ele>386.39999389648</ele>
        <time>2013-01-27T08:17:49.000Z</time>
      </trkpt>
      <trkpt lat="43.527" lon="5.56854">
        <ele>401.20001220703</ele>
        <time>2013-01-27T08:18:35.000Z</time>
      </trkpt>
      <trkpt lat="43.52747" lon="5.56865">
        <ele>410.39999389648</ele>
        <time>2013-01-27T08:19:11.000Z</time>
      </trkpt>
      <trkpt lat="43.52791" lon="5.56862">
        <ele>417.79998779297</ele>
        <time>2013-01-27T08:19:58.000Z</time>
      </trkpt>
      <trkpt lat="43.52837" lon="5.56893">
        <ele>429.39999389648</ele>
        <time>2013-01-27T08:20:42.000Z</time>
      </trkpt>
      <trkpt lat="43.52885" lon="5.5691">
        <ele>435.79998779297</ele>
        <time>2013-01-27T08:21:20.000Z</time>
      </trkpt>
      <trkpt lat="43.52931" lon="5.56927">
        <ele>442.79998779297</ele>
        <time>2013-01-27T08:21:57.000Z</time>
      </trkpt>
      <trkpt lat="43.52925" lon="5.56988">
        <ele>447.79998779297</ele>
        <time>2013-01-27T08:22:42.000Z</time>
      </trkpt>
      <trkpt lat="43.52903" lon="5.57052">
        <ele>453.60000610352</ele>
        <time>2013-01-27T08:23:24.000Z</time>
      </trkpt>
      <trkpt lat="43.52937" lon="5.57085">
        <ele>464.79998779297</ele>
        <time>2013-01-27T08:24:12.000Z</time>
      </trkpt>
      <trkpt lat="43.52929" lon="5.57123">
        <ele>468.39999389648</ele>
        <time>2013-01-27T08:25:11.000Z</time>
      </trkpt>
      <trkpt lat="43.5297" lon="5.57151">
        <ele>487.60000610352</ele>
        <time>2013-01-27T08:26:01.000Z</time>
      </trkpt>
      <trkpt lat="43.52975" lon="5.57212">
        <ele>505.79998779297</ele>
        <time>2013-01-27T08:27:08.000Z</time>
      </trkpt>
      <trkpt lat="43.52987" lon="5.57264">
        <ele>528.79998779297</ele>
        <time>2013-01-27T08:28:29.000Z</time>
      </trkpt>
      <trkpt lat="43.53006" lon="5.57315">
        <ele>560.40002441406</ele>
        <time>2013-01-27T08:30:25.000Z</time>
      </trkpt>
      <trkpt lat="43.5302" lon="5.57273">
        <ele>558.79998779297</ele>
        <time>2013-01-27T08:31:55.000Z</time>
      </trkpt>
      <trkpt lat="43.53058" lon="5.57253">
        <ele>584.79998779297</ele>
        <time>2013-01-27T08:33:12.000Z</time>
      </trkpt>
      <trkpt lat="43.53095" lon="5.5723">
        <ele>605.79998779297</ele>
        <time>2013-01-27T08:34:34.000Z</time>
      </trkpt>
      <trkpt lat="43.53125" lon="5.57229">
        <ele>624.79998779297</ele>
        <time>2013-01-27T08:42:06.000Z</time>
      </trkpt>
      <trkpt lat="43.5311" lon="5.57276">
        <ele>637.79998779297</ele>
        <time>2013-01-27T08:43:25.000Z</time>
      </trkpt>
      <trkpt lat="43.5308" lon="5.57337">
        <ele>646.79998779297</ele>
        <time>2013-01-27T08:44:29.000Z</time>
      </trkpt>
      <trkpt lat="43.53077" lon="5.57417">
        <ele>683.59997558594</ele>
        <time>2013-01-27T08:45:42.000Z</time>
      </trkpt>
      <trkpt lat="43.53066" lon="5.57484">
        <ele>722.40002441406</ele>
        <time>2013-01-27T08:47:42.000Z</time>
      </trkpt>
      <trkpt lat="43.53038" lon="5.57535">
        <ele>720.59997558594</ele>
        <time>2013-01-27T08:48:53.000Z</time>
      </trkpt>
      <trkpt lat="43.53062" lon="5.57534">
        <ele>741.79998779297</ele>
        <time>2013-01-27T08:51:16.000Z</time>
      </trkpt>
      <trkpt lat="43.53097" lon="5.5754">
        <ele>771.79998779297</ele>
        <time>2013-01-27T08:53:08.000Z</time>
      </trkpt>
      <trkpt lat="43.53097" lon="5.575">
        <ele>763.79998779297</ele>
        <time>2013-01-27T08:54:57.000Z</time>
      </trkpt>
      <trkpt lat="43.53141" lon="5.57491">
        <ele>786.20001220703</ele>
        <time>2013-01-27T08:57:37.000Z</time>
      </trkpt>
      <trkpt lat="43.53164" lon="5.57499">
        <ele>808.59997558594</ele>
        <time>2013-01-27T09:00:00.000Z</time>
      </trkpt>
      <trkpt lat="43.53204" lon="5.57517">
        <ele>820</ele>
        <time>2013-01-27T09:07:18.000Z</time>
      </trkpt>
      <trkpt lat="43.53224" lon="5.57585">
        <ele>838.79998779297</ele>
        <time>2013-01-27T09:09:41.000Z</time>
      </trkpt>
      <trkpt lat="43.53232" lon="5.57643">
        <ele>844</ele>
        <time>2013-01-27T09:10:49.000Z</time>
      </trkpt>
      <trkpt lat="43.53236" lon="5.57708">
        <ele>848.20001220703</ele>
        <time>2013-01-27T09:11:08.000Z</time>
      </trkpt>
      <trkpt lat="43.53249" lon="5.57776">
        <ele>848.79998779297</ele>
        <time>2013-01-27T09:11:49.000Z</time>
      </trkpt>
      <trkpt lat="43.53267" lon="5.57782">
        <ele>839.40002441406</ele>
        <time>2013-01-27T09:12:27.000Z</time>
      </trkpt>
      <trkpt lat="43.53291" lon="5.57761">
        <ele>829</ele>
        <time>2013-01-27T09:12:56.000Z</time>
      </trkpt>
      <trkpt lat="43.53302" lon="5.5776">
        <ele>824</ele>
        <time>2013-01-27T09:13:26.000Z</time>
      </trkpt>
      <trkpt lat="43.53327" lon="5.57802">
        <ele>805</ele>
        <time>2013-01-27T09:14:08.000Z</time>
      </trkpt>
      <trkpt lat="43.53314" lon="5.57843">
        <ele>807.59997558594</ele>
        <time>2013-01-27T09:14:39.000Z</time>
      </trkpt>
      <trkpt lat="43.53344" lon="5.57807">
        <ele>795.79998779297</ele>
        <time>2013-01-27T09:15:00.000Z</time>
      </trkpt>
      <trkpt lat="43.53358" lon="5.57848">
        <ele>784.79998779297</ele>
        <time>2013-01-27T09:15:32.000Z</time>
      </trkpt>
      <trkpt lat="43.53362" lon="5.57896">
        <ele>780.79998779297</ele>
        <time>2013-01-27T09:16:01.000Z</time>
      </trkpt>
      <trkpt lat="43.53422" lon="5.57879">
        <ele>758.59997558594</ele>
        <time>2013-01-27T09:16:26.000Z</time>
      </trkpt>
      <trkpt lat="43.53485" lon="5.57878">
        <ele>734.20001220703</ele>
        <time>2013-01-27T09:16:50.000Z</time>
      </trkpt>
      <trkpt lat="43.53538" lon="5.57876">
        <ele>720.79998779297</ele>
        <time>2013-01-27T09:17:21.000Z</time>
      </trkpt>
      <trkpt lat="43.53589" lon="5.57905">
        <ele>716.40002441406</ele>
        <time>2013-01-27T09:17:57.000Z</time>
      </trkpt>
      <trkpt lat="43.53643" lon="5.57949">
        <ele>707.79998779297</ele>
        <time>2013-01-27T09:18:38.000Z</time>
      </trkpt>
      <trkpt lat="43.53703" lon="5.57974">
        <ele>684.59997558594</ele>
        <time>2013-01-27T09:19:21.000Z</time>
      </trkpt>
      <trkpt lat="43.53763" lon="5.57995">
        <ele>656</ele>
        <time>2013-01-27T09:20:01.000Z</time>
      </trkpt>
      <trkpt lat="43.53828" lon="5.58012">
        <ele>623.59997558594</ele>
        <time>2013-01-27T09:20:48.000Z</time>
      </trkpt>
      <trkpt lat="43.53901" lon="5.57994">
        <ele>594.40002441406</ele>
        <time>2013-01-27T09:21:47.000Z</time>
      </trkpt>
      <trkpt lat="43.53945" lon="5.57954">
        <ele>582.40002441406</ele>
        <time>2013-01-27T09:23:19.000Z</time>
      </trkpt>
      <trkpt lat="43.54007" lon="5.57941">
        <ele>562.40002441406</ele>
        <time>2013-01-27T09:23:57.000Z</time>
      </trkpt>
      <trkpt lat="43.54067" lon="5.57943">
        <ele>547.20001220703</ele>
        <time>2013-01-27T09:24:32.000Z</time>
      </trkpt>
      <trkpt lat="43.54133" lon="5.57969">
        <ele>527.79998779297</ele>
        <time>2013-01-27T09:25:02.000Z</time>
      </trkpt>
      <trkpt lat="43.54194" lon="5.58006">
        <ele>509.39999389648</ele>
        <time>2013-01-27T09:25:53.000Z</time>
      </trkpt>
      <trkpt lat="43.54238" lon="5.57978">
        <ele>509.20001220703</ele>
        <time>2013-01-27T09:26:19.000Z</time>
      </trkpt>
      <trkpt lat="43.54302" lon="5.57972">
        <ele>498.20001220703</ele>
        <time>2013-01-27T09:26:48.000Z</time>
      </trkpt>
      <trkpt lat="43.54371" lon="5.57934">
        <ele>487.60000610352</ele>
        <time>2013-01-27T09:27:20.000Z</time>
      </trkpt>
      <trkpt lat="43.54424" lon="5.57881">
        <ele>482.39999389648</ele>
        <time>2013-01-27T09:27:45.000Z</time>
      </trkpt>
      <trkpt lat="43.54495" lon="5.57925">
        <ele>461.20001220703</ele>
        <time>2013-01-27T09:28:11.000Z</time>
      </trkpt>
      <trkpt lat="43.54563" lon="5.57981">
        <ele>451.79998779297</ele>
        <time>2013-01-27T09:28:50.000Z</time>
      </trkpt>
      <trkpt lat="43.54606" lon="5.57988">
        <ele>446.20001220703</ele>
        <time>2013-01-27T09:29:40.000Z</time>
      </trkpt>
      <trkpt lat="43.54654" lon="5.57925">
        <ele>450.39999389648</ele>
        <time>2013-01-27T09:32:00.000Z</time>
      </trkpt>
      <trkpt lat="43.54747" lon="5.57905">
        <ele>446.60000610352</ele>
        <time>2013-01-27T09:32:58.000Z</time>
      </trkpt>
      <trkpt lat="43.54728" lon="5.57749">
        <ele>452.60000610352</ele>
        <time>2013-01-27T09:34:30.000Z</time>
      </trkpt>
      <trkpt lat="43.54682" lon="5.57698">
        <ele>458.60000610352</ele>
        <time>2013-01-27T09:35:29.000Z</time>
      </trkpt>
      <trkpt lat="43.54622" lon="5.57726">
        <ele>466</ele>
        <time>2013-01-27T09:36:26.000Z</time>
      </trkpt>
      <trkpt lat="43.5456" lon="5.57736">
        <ele>476.20001220703</ele>
        <time>2013-01-27T09:37:07.000Z</time>
      </trkpt>
      <trkpt lat="43.54497" lon="5.57724">
        <ele>488.79998779297</ele>
        <time>2013-01-27T09:38:00.000Z</time>
      </trkpt>
      <trkpt lat="43.54438" lon="5.57756">
        <ele>501</ele>
        <time>2013-01-27T09:39:02.000Z</time>
      </trkpt>
      <trkpt lat="43.54366" lon="5.57784">
        <ele>515</ele>
        <time>2013-01-27T09:40:07.000Z</time>
      </trkpt>
      <trkpt lat="43.54305" lon="5.57768">
        <ele>537</ele>
        <time>2013-01-27T09:41:57.000Z</time>
      </trkpt>
      <trkpt lat="43.54283" lon="5.57689">
        <ele>551.40002441406</ele>
        <time>2013-01-27T09:43:16.000Z</time>
      </trkpt>
      <trkpt lat="43.54212" lon="5.57652">
        <ele>572.79998779297</ele>
        <time>2013-01-27T09:44:32.000Z</time>
      </trkpt>
      <trkpt lat="43.54164" lon="5.57679">
        <ele>592</ele>
        <time>2013-01-27T09:45:49.000Z</time>
      </trkpt>
      <trkpt lat="43.54088" lon="5.57691">
        <ele>611.79998779297</ele>
        <time>2013-01-27T09:46:55.000Z</time>
      </trkpt>
      <trkpt lat="43.54001" lon="5.57727">
        <ele>628.40002441406</ele>
        <time>2013-01-27T09:48:12.000Z</time>
      </trkpt>
      <trkpt lat="43.53873" lon="5.57763">
        <ele>656.20001220703</ele>
        <time>2013-01-27T09:49:56.000Z</time>
      </trkpt>
      <trkpt lat="43.53796" lon="5.57832">
        <ele>665.59997558594</ele>
        <time>2013-01-27T09:51:14.000Z</time>
      </trkpt>
      <trkpt lat="43.53701" lon="5.57895">
        <ele>689</ele>
        <time>2013-01-27T09:52:31.000Z</time>
      </trkpt>
      <trkpt lat="43.53651" lon="5.57933">
        <ele>705.40002441406</ele>
        <time>2013-01-27T09:53:22.000Z</time>
      </trkpt>
      <trkpt lat="43.53598" lon="5.57926">
        <ele>717.79998779297</ele>
        <time>2013-01-27T09:54:43.000Z</time>
      </trkpt>
      <trkpt lat="43.53537" lon="5.57931">
        <ele>731</ele>
        <time>2013-01-27T09:55:20.000Z</time>
      </trkpt>
      <trkpt lat="43.53489" lon="5.57944">
        <ele>744.79998779297</ele>
        <time>2013-01-27T09:56:01.000Z</time>
      </trkpt>
      <trkpt lat="43.53436" lon="5.57931">
        <ele>759.20001220703</ele>
        <time>2013-01-27T09:56:40.000Z</time>
      </trkpt>
      <trkpt lat="43.53383" lon="5.57931">
        <ele>775.40002441406</ele>
        <time>2013-01-27T09:57:23.000Z</time>
      </trkpt>
      <trkpt lat="43.53348" lon="5.57914">
        <ele>784.40002441406</ele>
        <time>2013-01-27T09:58:41.000Z</time>
      </trkpt>
      <trkpt lat="43.53352" lon="5.57823">
        <ele>789.59997558594</ele>
        <time>2013-01-27T09:59:41.000Z</time>
      </trkpt>
      <trkpt lat="43.53319" lon="5.57869">
        <ele>801.79998779297</ele>
        <time>2013-01-27T10:00:18.000Z</time>
      </trkpt>
      <trkpt lat="43.53319" lon="5.57791">
        <ele>811.20001220703</ele>
        <time>2013-01-27T10:01:33.000Z</time>
      </trkpt>
      <trkpt lat="43.53307" lon="5.57769">
        <ele>820.40002441406</ele>
        <time>2013-01-27T10:02:38.000Z</time>
      </trkpt>
      <trkpt lat="43.53294" lon="5.5774">
        <ele>829</ele>
        <time>2013-01-27T10:03:13.000Z</time>
      </trkpt>
      <trkpt lat="43.53276" lon="5.57794">
        <ele>834</ele>
        <time>2013-01-27T10:03:41.000Z</time>
      </trkpt>
      <trkpt lat="43.53261" lon="5.57783">
        <ele>842.79998779297</ele>
        <time>2013-01-27T10:04:13.000Z</time>
      </trkpt>
      <trkpt lat="43.53241" lon="5.57791">
        <ele>849.40002441406</ele>
        <time>2013-01-27T10:04:54.000Z</time>
      </trkpt>
      <trkpt lat="43.53231" lon="5.57689">
        <ele>846.59997558594</ele>
        <time>2013-01-27T10:06:00.000Z</time>
      </trkpt>
      <trkpt lat="43.53221" lon="5.57612">
        <ele>839.79998779297</ele>
        <time>2013-01-27T10:06:25.000Z</time>
      </trkpt>
      <trkpt lat="43.53208" lon="5.57653">
        <ele>840.40002441406</ele>
        <time>2013-01-27T10:07:27.000Z</time>
      </trkpt>
      <trkpt lat="43.53189" lon="5.57723">
        <ele>848.59997558594</ele>
        <time>2013-01-27T10:08:25.000Z</time>
      </trkpt>
      <trkpt lat="43.53184" lon="5.57797">
        <ele>860.20001220703</ele>
        <time>2013-01-27T10:09:15.000Z</time>
      </trkpt>
      <trkpt lat="43.53144" lon="5.57841">
        <ele>858.40002441406</ele>
        <time>2013-01-27T10:14:06.000Z</time>
      </trkpt>
      <trkpt lat="43.53154" lon="5.57834">
        <ele>863.20001220703</ele>
        <time>2013-01-27T10:15:18.000Z</time>
      </trkpt>
      <trkpt lat="43.53181" lon="5.57758">
        <ele>855</ele>
        <time>2013-01-27T10:16:16.000Z</time>
      </trkpt>
      <trkpt lat="43.53199" lon="5.57676">
        <ele>841.40002441406</ele>
        <time>2013-01-27T10:18:09.000Z</time>
      </trkpt>
      <trkpt lat="43.53214" lon="5.57608">
        <ele>838.20001220703</ele>
        <time>2013-01-27T10:18:48.000Z</time>
      </trkpt>
      <trkpt lat="43.53255" lon="5.5755">
        <ele>834.40002441406</ele>
        <time>2013-01-27T10:19:59.000Z</time>
      </trkpt>
      <trkpt lat="43.53293" lon="5.57507">
        <ele>816</ele>
        <time>2013-01-27T10:21:20.000Z</time>
      </trkpt>
      <trkpt lat="43.53328" lon="5.57469">
        <ele>797.79998779297</ele>
        <time>2013-01-27T10:22:54.000Z</time>
      </trkpt>
      <trkpt lat="43.53343" lon="5.57437">
        <ele>785</ele>
        <time>2013-01-27T10:24:17.000Z</time>
      </trkpt>
      <trkpt lat="43.53368" lon="5.57432">
        <ele>777.79998779297</ele>
        <time>2013-01-27T10:25:29.000Z</time>
      </trkpt>
      <trkpt lat="43.53412" lon="5.57381">
        <ele>756.40002441406</ele>
        <time>2013-01-27T10:26:42.000Z</time>
      </trkpt>
      <trkpt lat="43.53476" lon="5.57329">
        <ele>740</ele>
        <time>2013-01-27T10:27:41.000Z</time>
      </trkpt>
      <trkpt lat="43.53519" lon="5.57282">
        <ele>726</ele>
        <time>2013-01-27T10:28:35.000Z</time>
      </trkpt>
      <trkpt lat="43.53568" lon="5.5722">
        <ele>704</ele>
        <time>2013-01-27T10:29:31.000Z</time>
      </trkpt>
      <trkpt lat="43.53622" lon="5.57186">
        <ele>689.79998779297</ele>
        <time>2013-01-27T10:30:39.000Z</time>
      </trkpt>
      <trkpt lat="43.53655" lon="5.57153">
        <ele>682</ele>
        <time>2013-01-27T10:31:40.000Z</time>
      </trkpt>
      <trkpt lat="43.53665" lon="5.57082">
        <ele>670</ele>
        <time>2013-01-27T10:32:28.000Z</time>
      </trkpt>
      <trkpt lat="43.53636" lon="5.57085">
        <ele>664.59997558594</ele>
        <time>2013-01-27T10:33:23.000Z</time>
      </trkpt>
      <trkpt lat="43.53572" lon="5.57071">
        <ele>644</ele>
        <time>2013-01-27T10:34:27.000Z</time>
      </trkpt>
      <trkpt lat="43.53502" lon="5.57039">
        <ele>608</ele>
        <time>2013-01-27T10:35:08.000Z</time>
      </trkpt>
      <trkpt lat="43.53443" lon="5.57014">
        <ele>586.20001220703</ele>
        <time>2013-01-27T10:35:38.000Z</time>
      </trkpt>
      <trkpt lat="43.53377" lon="5.56986">
        <ele>568.40002441406</ele>
        <time>2013-01-27T10:36:13.000Z</time>
      </trkpt>
      <trkpt lat="43.53325" lon="5.56948">
        <ele>554.40002441406</ele>
        <time>2013-01-27T10:36:35.000Z</time>
      </trkpt>
      <trkpt lat="43.53267" lon="5.56908">
        <ele>540.79998779297</ele>
        <time>2013-01-27T10:36:59.000Z</time>
      </trkpt>
      <trkpt lat="43.53235" lon="5.56896">
        <ele>534.79998779297</ele>
        <time>2013-01-27T10:39:48.000Z</time>
      </trkpt>
      <trkpt lat="43.53229" lon="5.56936">
        <ele>541.59997558594</ele>
        <time>2013-01-27T10:41:18.000Z</time>
      </trkpt>
      <trkpt lat="43.53232" lon="5.56992">
        <ele>558.40002441406</ele>
        <time>2013-01-27T10:42:07.000Z</time>
      </trkpt>
      <trkpt lat="43.53238" lon="5.57038">
        <ele>573.59997558594</ele>
        <time>2013-01-27T10:42:57.000Z</time>
      </trkpt>
      <trkpt lat="43.53277" lon="5.57055">
        <ele>583.59997558594</ele>
        <time>2013-01-27T10:43:40.000Z</time>
      </trkpt>
      <trkpt lat="43.53302" lon="5.57099">
        <ele>602</ele>
        <time>2013-01-27T10:44:28.000Z</time>
      </trkpt>
      <trkpt lat="43.53319" lon="5.57135">
        <ele>622</ele>
        <time>2013-01-27T10:46:07.000Z</time>
      </trkpt>
      <trkpt lat="43.53319" lon="5.57186">
        <ele>648.79998779297</ele>
        <time>2013-01-27T10:47:30.000Z</time>
      </trkpt>
      <trkpt lat="43.53303" lon="5.57235">
        <ele>673.79998779297</ele>
        <time>2013-01-27T10:49:08.000Z</time>
      </trkpt>
      <trkpt lat="43.5331" lon="5.57276">
        <ele>697.59997558594</ele>
        <time>2013-01-27T10:51:02.000Z</time>
      </trkpt>
      <trkpt lat="43.53278" lon="5.57311">
        <ele>714.59997558594</ele>
        <time>2013-01-27T10:52:35.000Z</time>
      </trkpt>
      <trkpt lat="43.53295" lon="5.57354">
        <ele>739.40002441406</ele>
        <time>2013-01-27T10:53:53.000Z</time>
      </trkpt>
      <trkpt lat="43.53332" lon="5.5737">
        <ele>752.59997558594</ele>
        <time>2013-01-27T10:54:51.000Z</time>
      </trkpt>
      <trkpt lat="43.53374" lon="5.57371">
        <ele>753.79998779297</ele>
        <time>2013-01-27T10:55:52.000Z</time>
      </trkpt>
      <trkpt lat="43.53407" lon="5.57359">
        <ele>750.40002441406</ele>
        <time>2013-01-27T11:00:51.000Z</time>
      </trkpt>
      <trkpt lat="43.53451" lon="5.57351">
        <ele>745.40002441406</ele>
        <time>2013-01-27T11:01:48.000Z</time>
      </trkpt>
      <trkpt lat="43.53494" lon="5.57319">
        <ele>737.20001220703</ele>
        <time>2013-01-27T11:02:31.000Z</time>
      </trkpt>
      <trkpt lat="43.53529" lon="5.57275">
        <ele>723.20001220703</ele>
        <time>2013-01-27T11:03:05.000Z</time>
      </trkpt>
      <trkpt lat="43.53564" lon="5.57226">
        <ele>706</ele>
        <time>2013-01-27T11:03:41.000Z</time>
      </trkpt>
      <trkpt lat="43.53605" lon="5.57189">
        <ele>692.79998779297</ele>
        <time>2013-01-27T11:04:25.000Z</time>
      </trkpt>
      <trkpt lat="43.53639" lon="5.57148">
        <ele>681.20001220703</ele>
        <time>2013-01-27T11:05:21.000Z</time>
      </trkpt>
      <trkpt lat="43.53659" lon="5.57095">
        <ele>671.40002441406</ele>
        <time>2013-01-27T11:06:10.000Z</time>
      </trkpt>
      <trkpt lat="43.53629" lon="5.57072">
        <ele>658.40002441406</ele>
        <time>2013-01-27T11:07:13.000Z</time>
      </trkpt>
      <trkpt lat="43.53551" lon="5.57062">
        <ele>633.20001220703</ele>
        <time>2013-01-27T11:08:05.000Z</time>
      </trkpt>
      <trkpt lat="43.53497" lon="5.57053">
        <ele>612</ele>
        <time>2013-01-27T11:09:11.000Z</time>
      </trkpt>
      <trkpt lat="43.53448" lon="5.57033">
        <ele>595</ele>
        <time>2013-01-27T11:09:59.000Z</time>
      </trkpt>
      <trkpt lat="43.53384" lon="5.57005">
        <ele>575</ele>
        <time>2013-01-27T11:10:45.000Z</time>
      </trkpt>
      <trkpt lat="43.53318" lon="5.56966">
        <ele>559.20001220703</ele>
        <time>2013-01-27T11:11:35.000Z</time>
      </trkpt>
      <trkpt lat="43.53271" lon="5.56935">
        <ele>547.40002441406</ele>
        <time>2013-01-27T11:12:58.000Z</time>
      </trkpt>
      <trkpt lat="43.53234" lon="5.5688">
        <ele>532.40002441406</ele>
        <time>2013-01-27T11:13:40.000Z</time>
      </trkpt>
      <trkpt lat="43.53208" lon="5.56816">
        <ele>519.79998779297</ele>
        <time>2013-01-27T11:14:23.000Z</time>
      </trkpt>
      <trkpt lat="43.53164" lon="5.5677">
        <ele>514</ele>
        <time>2013-01-27T11:15:08.000Z</time>
      </trkpt>
      <trkpt lat="43.53148" lon="5.56714">
        <ele>505.79998779297</ele>
        <time>2013-01-27T11:16:32.000Z</time>
      </trkpt>
      <trkpt lat="43.53107" lon="5.56693">
        <ele>492.39999389648</ele>
        <time>2013-01-27T11:17:33.000Z</time>
      </trkpt>
      <trkpt lat="43.53066" lon="5.56711">
        <ele>481.60000610352</ele>
        <time>2013-01-27T11:18:24.000Z</time>
      </trkpt>
      <trkpt lat="43.53049" lon="5.56766">
        <ele>475.79998779297</ele>
        <time>2013-01-27T11:19:08.000Z</time>
      </trkpt>
      <trkpt lat="43.5303" lon="5.5682">
        <ele>466</ele>
        <time>2013-01-27T11:20:03.000Z</time>
      </trkpt>
      <trkpt lat="43.52994" lon="5.56871">
        <ele>454.60000610352</ele>
        <time>2013-01-27T11:20:43.000Z</time>
      </trkpt>
      <trkpt lat="43.52951" lon="5.56912">
        <ele>445.39999389648</ele>
        <time>2013-01-27T11:21:31.000Z</time>
      </trkpt>
      <trkpt lat="43.52884" lon="5.56889">
        <ele>434.39999389648</ele>
        <time>2013-01-27T11:22:15.000Z</time>
      </trkpt>
      <trkpt lat="43.52814" lon="5.5687">
        <ele>423</ele>
        <time>2013-01-27T11:23:13.000Z</time>
      </trkpt>
      <trkpt lat="43.52758" lon="5.56858">
        <ele>411.60000610352</ele>
        <time>2013-01-27T11:24:08.000Z</time>
      </trkpt>
      <trkpt lat="43.527" lon="5.56836">
        <ele>399.60000610352</ele>
        <time>2013-01-27T11:25:02.000Z</time>
      </trkpt>
      <trkpt lat="43.52655" lon="5.56765">
        <ele>382.39999389648</ele>
        <time>2013-01-27T11:25:49.000Z</time>
      </trkpt>
      <trkpt lat="43.52603" lon="5.56718">
        <ele>364.79998779297</ele>
        <time>2013-01-27T11:26:48.000Z</time>
      </trkpt>
      <trkpt lat="43.52552" lon="5.56683">
        <ele>350.79998779297</ele>
        <time>2013-01-27T11:27:43.000Z</time>
      </trkpt>
      <trkpt lat="43.52502" lon="5.56712">
        <ele>340.60000610352</ele>
        <time>2013-01-27T11:29:27.000Z</time>
      </trkpt>
      <trkpt lat="43.5245" lon="5.56697">
        <ele>328.60000610352</ele>
        <time>2013-01-27T11:30:19.000Z</time>
      </trkpt>
      <trkpt lat="43.5242" lon="5.56636">
        <ele>320.20001220703</ele>
        <time>2013-01-27T11:31:03.000Z</time>
      </trkpt>
      <trkpt lat="43.52393" lon="5.56577">
        <ele>313.60000610352</ele>
        <time>2013-01-27T11:31:50.000Z</time>
      </trkpt>
      <trkpt lat="43.5239" lon="5.56479">
        <ele>309</ele>
        <time>2013-01-27T11:32:55.000Z</time>
      </trkpt>
    </trkseg>
  </trk>
</gpx>